createdAt,value
2019-04-10T00:02:10.634Z,30.30
2019-04-10T00:04:59.168Z,28.80
2019-04-10T00:07:47.977Z,30.63
2019-04-10T00:10:36.536Z,29.33
2019-04-10T00:13:24.759Z,29.03
2019-04-10T00:16:13.930Z,28.53
2019-04-10T00:19:02.402Z,29.37
2019-04-10T00:21:51.327Z,30.40
2019-04-10T00:24:39.905Z,27.87
2019-04-10T00:27:28.451Z,29.30
2019-04-10T00:30:16.771Z,28.37
2019-04-10T00:33:04.806Z,29.20
2019-04-10T00:35:52.634Z,28.33
2019-04-10T00:38:42.129Z,26.80
2019-04-10T00:41:30.919Z,29.37
2019-04-10T00:44:19.441Z,30.10
2019-04-10T00:47:07.641Z,28.07
2019-04-10T00:49:55.969Z,28.03
2019-04-10T00:52:44.214Z,28.00
2019-04-10T00:55:32.818Z,28.00
2019-04-10T00:58:22.527Z,28.70
2019-04-10T01:01:11.751Z,28.17
2019-04-10T01:04:00.593Z,28.40
2019-04-10T01:06:48.749Z,28.93
2019-04-10T01:09:37.508Z,27.63
2019-04-10T01:12:25.864Z,29.80
2019-04-10T01:15:14.164Z,26.93
2019-04-10T01:18:02.763Z,29.30
2019-04-10T01:20:51.259Z,28.23
2019-04-10T01:23:39.404Z,27.20
2019-04-10T01:26:28.245Z,27.03
2019-04-10T01:29:17.574Z,28.37
2019-04-10T01:32:07.691Z,26.20
2019-04-10T01:34:56.274Z,26.83
2019-04-10T01:37:51.916Z,25.60
2019-04-10T01:40:35.249Z,29.23
2019-04-10T01:43:23.297Z,25.93
2019-04-10T01:46:12.058Z,26.90
2019-04-10T01:49:00.426Z,26.70
2019-04-10T01:51:48.471Z,28.23
2019-04-10T01:54:37.405Z,26.57
2019-04-10T01:57:25.620Z,27.60
2019-04-10T02:00:17.616Z,27.20
2019-04-10T02:03:05.818Z,28.50
2019-04-10T02:05:54.732Z,27.10
2019-04-10T02:08:43.096Z,26.90
2019-04-10T02:11:30.906Z,28.90
2019-04-10T02:14:20.414Z,25.80
2019-04-10T02:17:09.033Z,27.17
2019-04-10T02:19:56.910Z,27.17
2019-04-10T02:22:45.853Z,26.90
2019-04-10T02:25:34.338Z,27.83
2019-04-10T02:28:22.771Z,27.90
2019-04-10T02:31:12.567Z,26.80
2019-04-10T02:34:01.582Z,27.10
2019-04-10T02:36:50.797Z,25.67
2019-04-10T02:39:45.813Z,26.27
2019-04-10T02:42:30.221Z,27.30
2019-04-10T02:45:19.135Z,26.73
2019-04-10T02:48:08.558Z,28.30
2019-04-10T02:50:57.634Z,29.50
2019-04-10T02:53:48.018Z,25.43
2019-04-10T02:56:36.657Z,27.37
2019-04-10T02:59:25.154Z,26.13
2019-04-10T03:02:14.034Z,29.13
2019-04-10T03:05:02.697Z,25.10
2019-04-10T03:07:52.450Z,26.77
2019-04-10T03:10:48.775Z,27.90
2019-04-10T03:13:31.201Z,26.80
2019-04-10T03:16:19.893Z,28.67
2019-04-10T03:19:09.294Z,28.80
2019-04-10T03:21:57.933Z,27.07
2019-04-10T03:24:46.541Z,28.87
2019-04-10T03:27:35.187Z,25.10
2019-04-10T03:30:23.739Z,27.50
2019-04-10T03:33:32.371Z,26.77
2019-04-10T03:36:17.752Z,28.53
2019-04-10T03:39:09.326Z,27.17
2019-04-10T03:41:58.759Z,28.50
2019-04-10T03:47:41.832Z,27.07
2019-04-10T03:50:30.159Z,28.87
2019-04-10T03:53:18.161Z,28.90
2019-04-10T03:56:07.559Z,29.77
2019-04-10T03:58:56.459Z,27.93
2019-04-10T04:01:44.455Z,27.37
2019-04-10T04:04:33.341Z,26.80
2019-04-10T04:07:24.602Z,26.30
2019-04-10T04:10:13.488Z,26.10
2019-04-10T04:13:01.640Z,27.47
2019-04-10T04:15:50.592Z,27.13
2019-04-10T04:18:39.419Z,24.50
2019-04-10T04:21:29.901Z,27.97
2019-04-10T04:24:21.146Z,26.20
2019-04-10T04:27:08.971Z,27.80
2019-04-10T04:29:57.473Z,26.70
2019-04-10T04:32:48.770Z,27.60
2019-04-10T04:38:53.903Z,29.83
2019-04-10T04:41:52.489Z,26.40
2019-04-10T04:44:41.120Z,29.17
2019-04-10T04:47:29.093Z,25.53
2019-04-10T04:50:17.844Z,27.27
2019-04-10T04:53:06.537Z,28.93
2019-04-10T04:55:55.530Z,25.63
2019-04-10T04:58:43.586Z,26.67
2019-04-10T05:01:31.834Z,25.83
2019-04-10T05:04:20.323Z,26.83
2019-04-10T05:07:08.375Z,26.80
2019-04-10T05:09:59.882Z,27.73
2019-04-10T05:12:46.410Z,26.50
2019-04-10T05:15:35.389Z,25.20
2019-04-10T05:18:23.728Z,28.90
2019-04-10T05:21:12.734Z,27.00
2019-04-10T05:24:01.410Z,27.97
2019-04-10T05:26:49.184Z,27.97
2019-04-10T05:29:37.075Z,28.53
2019-04-10T05:32:28.486Z,27.83
2019-04-10T05:35:17.266Z,23.80
2019-04-10T05:38:05.819Z,26.97
2019-04-10T05:40:55.060Z,26.53
2019-04-10T05:43:44.764Z,28.77
2019-04-10T05:46:33.615Z,27.83
2019-04-10T05:49:22.537Z,27.57
2019-04-10T05:52:11.260Z,25.77
2019-04-10T05:55:00.010Z,25.80
2019-04-10T05:57:49.008Z,24.20
2019-04-10T06:00:41.012Z,27.13
2019-04-10T06:03:30.254Z,25.93
2019-04-10T06:06:19.977Z,26.30
2019-04-10T06:09:09.326Z,26.80
2019-04-10T06:11:57.411Z,25.23
2019-04-10T06:14:46.295Z,23.37
2019-04-10T06:17:34.708Z,24.10
2019-04-10T06:20:23.143Z,26.20
2019-04-10T06:23:11.524Z,26.47
2019-04-10T06:26:00.513Z,25.17
2019-04-10T06:28:48.992Z,25.93
2019-04-10T06:31:39.044Z,25.50
2019-04-10T06:34:26.927Z,25.03
2019-04-10T06:37:15.730Z,25.07
2019-04-10T06:40:12.991Z,25.93
2019-04-10T06:42:56.509Z,25.23
2019-04-10T06:45:44.548Z,25.00
2019-04-10T06:48:34.104Z,25.60
2019-04-10T06:51:22.418Z,24.57
2019-04-10T06:54:11.761Z,23.40
2019-04-10T06:57:02.767Z,23.70
2019-04-10T06:59:52.347Z,23.93
2019-04-10T07:02:41.089Z,24.87
2019-04-10T07:05:37.982Z,26.20
2019-04-10T07:08:23.930Z,27.43
2019-04-10T07:11:13.531Z,27.30
2019-04-10T07:14:01.645Z,24.47
2019-04-10T07:16:50.766Z,24.70
2019-04-10T07:19:41.428Z,24.63
2019-04-10T07:22:28.984Z,25.17
2019-04-10T07:25:17.055Z,24.60
2019-04-10T07:28:07.400Z,24.40
2019-04-10T07:30:59.439Z,25.80
2019-04-10T07:33:48.704Z,23.17
2019-04-10T07:36:34.921Z,25.27
2019-04-10T07:39:26.005Z,23.70
2019-04-10T07:42:25.741Z,23.10
2019-04-10T07:45:15.952Z,25.17
2019-04-10T07:48:04.586Z,25.30
2019-04-10T07:50:53.603Z,26.30
2019-04-10T07:53:43.494Z,24.20
2019-04-10T07:56:31.889Z,24.73
2019-04-10T07:59:20.561Z,23.40
2019-04-10T08:02:10.147Z,24.93
2019-04-10T08:04:58.466Z,23.53
2019-04-10T08:07:47.255Z,25.80
2019-04-10T08:10:36.812Z,23.20
2019-04-10T08:13:26.718Z,24.50
2019-04-10T08:16:15.356Z,25.67
2019-04-10T08:19:04.087Z,24.70
2019-04-10T08:21:52.767Z,23.23
2019-04-10T08:24:41.369Z,24.03
2019-04-10T08:27:29.922Z,24.87
2019-04-10T08:30:18.131Z,25.93
2019-04-10T08:33:06.326Z,24.57
2019-04-10T08:35:54.801Z,23.43
2019-04-10T08:38:43.222Z,25.37
2019-04-10T08:41:31.740Z,24.83
2019-04-10T08:44:22.144Z,23.30
2019-04-10T08:47:11.052Z,22.27
2019-04-10T08:49:59.532Z,25.50
2019-04-10T08:52:47.167Z,24.30
2019-04-10T08:55:35.829Z,23.63
2019-04-10T08:58:24.978Z,24.50
2019-04-10T09:01:13.583Z,23.10
2019-04-10T09:04:01.550Z,25.57
2019-04-10T09:06:49.534Z,25.00
2019-04-10T09:09:38.171Z,24.13
2019-04-10T09:12:26.339Z,23.70
2019-04-10T09:15:14.331Z,24.37
2019-04-10T09:18:02.633Z,24.43
2019-04-10T09:20:51.018Z,22.70
2019-04-10T09:23:45.588Z,24.73
2019-04-10T09:26:28.978Z,22.13
2019-04-10T09:29:18.169Z,23.13
2019-04-10T09:32:06.521Z,23.07
2019-04-10T09:34:54.042Z,22.37
2019-04-10T09:37:42.102Z,22.30
2019-04-10T09:40:30.085Z,21.80
2019-04-10T09:43:18.355Z,21.57
2019-04-10T09:46:06.436Z,21.83
2019-04-10T09:48:54.126Z,22.47
2019-04-10T09:51:42.462Z,21.97
2019-04-10T09:54:31.407Z,22.20
2019-04-10T09:57:20.114Z,23.93
2019-04-10T10:00:10.403Z,21.70
2019-04-10T10:02:59.372Z,23.20
2019-04-10T10:05:47.412Z,22.70
2019-04-10T10:08:35.988Z,20.67
2019-04-10T10:11:24.297Z,23.03
2019-04-10T10:14:12.566Z,20.27
2019-04-10T10:17:00.473Z,20.20
2019-04-10T10:19:48.434Z,23.10
2019-04-10T10:22:37.056Z,21.03
2019-04-10T10:25:26.913Z,21.10
2019-04-10T10:28:15.292Z,21.17
2019-04-10T10:31:04.061Z,20.00
2019-04-10T10:33:52.216Z,24.07
2019-04-10T10:36:44.477Z,20.70
2019-04-10T10:39:29.257Z,21.37
2019-04-10T10:42:17.339Z,22.10
2019-04-10T10:45:13.051Z,22.80
2019-04-10T10:48:01.287Z,20.17
2019-04-10T10:50:49.828Z,18.37
2019-04-10T10:53:38.656Z,19.40
2019-04-10T10:56:26.655Z,20.47
2019-04-10T10:59:15.519Z,19.83
2019-04-10T11:02:04.382Z,21.30
2019-04-10T11:04:53.876Z,18.93
2019-04-10T11:07:42.904Z,19.83
2019-04-10T11:10:33.720Z,21.67
2019-04-10T11:13:22.597Z,21.30
2019-04-10T11:16:12.952Z,21.90
2019-04-10T11:19:00.668Z,21.63
2019-04-10T11:21:49.672Z,20.73
2019-04-10T11:24:38.253Z,21.80
2019-04-10T11:27:28.410Z,20.40
2019-04-10T11:30:18.351Z,20.40
2019-04-10T11:33:06.630Z,17.23
2019-04-10T11:35:57.295Z,19.10
2019-04-10T11:38:46.495Z,18.70
2019-04-10T11:41:35.081Z,18.63
2019-04-10T11:44:24.915Z,18.47
2019-04-10T11:47:14.860Z,17.17
2019-04-10T11:50:05.995Z,17.90
2019-04-10T11:52:54.117Z,19.80
2019-04-10T11:58:33.714Z,21.30
2019-04-10T12:01:24.559Z,20.10
2019-04-10T12:04:13.950Z,18.00
2019-04-10T12:07:02.087Z,18.10
2019-04-10T12:12:41.705Z,18.77
2019-04-10T12:15:30.339Z,18.60
2019-04-10T12:18:18.367Z,17.57
2019-04-10T12:21:07.352Z,18.90
2019-04-10T12:23:56.868Z,17.33
2019-04-10T12:26:46.110Z,18.10
2019-04-10T12:29:35.000Z,20.27
2019-04-10T12:32:23.575Z,18.37
2019-04-10T12:38:08.102Z,19.67
2019-04-10T12:40:56.930Z,19.93
2019-04-10T12:43:45.178Z,19.90
2019-04-10T12:46:33.090Z,22.60
2019-04-10T12:49:20.739Z,20.33
2019-04-10T12:52:08.275Z,19.47
2019-04-10T12:54:56.400Z,21.00
2019-04-10T12:57:43.674Z,19.87
2019-04-10T13:00:31.845Z,19.47
2019-04-10T13:03:19.511Z,17.33
2019-04-10T13:06:07.700Z,17.30
2019-04-10T13:09:05.692Z,17.60
2019-04-10T13:11:45.399Z,18.13
2019-04-10T13:14:33.310Z,17.87
2019-04-10T13:17:20.501Z,17.33
2019-04-10T13:20:09.957Z,18.10
2019-04-10T13:22:58.266Z,16.87
2019-04-10T13:25:55.052Z,17.23
2019-04-10T13:28:35.880Z,18.47
2019-04-10T13:31:23.602Z,18.67
2019-04-10T13:34:11.707Z,18.80
2019-04-10T13:36:59.840Z,17.73
2019-04-10T13:39:48.898Z,16.63
2019-04-10T13:42:37.152Z,18.60
2019-04-10T13:45:25.447Z,17.50
2019-04-10T13:48:13.154Z,19.57
2019-04-10T13:51:01.252Z,18.13
2019-04-10T13:53:48.294Z,18.10
2019-04-10T13:56:37.136Z,18.40
2019-04-10T14:02:34.092Z,18.20
2019-04-10T14:05:22.291Z,18.00
2019-04-10T14:08:10.467Z,17.37
2019-04-10T14:11:00.579Z,17.43
2019-04-10T14:13:51.835Z,18.10
2019-04-10T14:16:41.120Z,17.00
2019-04-10T14:19:29.928Z,17.00
2019-04-10T14:22:17.705Z,18.20
2019-04-10T14:25:07.324Z,17.67
2019-04-10T14:27:54.683Z,16.40
2019-04-10T14:30:43.233Z,17.87
2019-04-10T14:33:30.776Z,16.43
2019-04-10T14:36:22.409Z,17.73
2019-04-10T14:39:17.855Z,17.77
2019-04-10T14:44:57.687Z,18.17
2019-04-10T14:47:46.235Z,19.80
2019-04-10T14:50:34.139Z,18.77
2019-04-10T14:53:22.752Z,18.97
2019-04-10T14:56:11.584Z,17.40
2019-04-10T14:59:01.018Z,18.67
2019-04-10T15:01:50.310Z,18.40
2019-04-10T15:04:39.442Z,16.70
2019-04-10T15:07:28.890Z,18.37
2019-04-10T15:10:16.971Z,17.07
2019-04-10T15:13:10.264Z,18.77
2019-04-10T15:15:54.748Z,17.93
2019-04-10T15:18:43.716Z,17.20
2019-04-10T15:21:32.214Z,18.23
2019-04-10T15:24:21.548Z,18.47
2019-04-10T15:27:11.067Z,17.73
2019-04-10T15:29:59.940Z,18.10
2019-04-10T15:32:47.670Z,18.47
2019-04-10T15:35:35.825Z,17.17
2019-04-10T15:38:24.116Z,17.33
2019-04-10T15:41:12.833Z,17.37
2019-04-10T15:44:01.511Z,15.93
2019-04-10T15:46:49.767Z,17.73
2019-04-10T15:49:38.733Z,15.63
2019-04-10T15:52:27.335Z,17.67
2019-04-10T15:55:15.487Z,16.80
2019-04-10T15:58:05.019Z,16.00
2019-04-10T16:03:47.253Z,16.13
2019-04-10T16:06:35.560Z,16.70
2019-04-10T16:09:25.228Z,15.13
2019-04-10T16:12:18.630Z,14.97
2019-04-10T16:15:07.651Z,14.80
2019-04-10T16:18:07.206Z,17.20
2019-04-10T16:20:55.925Z,16.53
2019-04-10T16:23:49.631Z,16.83
2019-04-10T16:26:37.663Z,16.10
2019-04-10T16:29:26.667Z,15.87
2019-04-10T16:32:16.840Z,15.40
2019-04-10T16:35:05.545Z,14.47
2019-04-10T16:37:53.806Z,14.00
2019-04-10T16:40:41.474Z,15.20
2019-04-10T16:43:30.602Z,14.83
2019-04-10T16:46:20.328Z,14.93
2019-04-10T16:49:10.657Z,14.10
2019-04-10T16:51:58.842Z,15.37
2019-04-10T16:54:49.979Z,13.90
2019-04-10T16:57:38.811Z,13.37
2019-04-10T17:00:29.089Z,13.93
2019-04-10T17:03:18.217Z,14.70
2019-04-10T17:06:10.091Z,13.90
2019-04-10T17:08:58.480Z,13.73
2019-04-10T17:11:47.323Z,14.27
2019-04-10T17:14:37.738Z,13.43
2019-04-10T17:17:26.690Z,14.07
2019-04-10T17:20:15.987Z,14.20
2019-04-10T17:23:04.893Z,13.83
2019-04-10T17:25:54.721Z,13.50
2019-04-10T17:28:42.750Z,12.70
2019-04-10T17:31:31.232Z,14.70
2019-04-10T17:34:20.797Z,15.95
2019-04-10T17:37:09.921Z,12.70
2019-04-10T17:39:59.745Z,14.03
2019-04-10T17:42:48.571Z,13.17
2019-04-10T17:45:36.457Z,13.50
2019-04-10T17:48:25.833Z,14.50
2019-04-10T17:51:14.573Z,14.23
2019-04-10T17:54:04.206Z,14.13
2019-04-10T17:56:54.772Z,13.30
2019-04-10T17:59:44.802Z,13.70
2019-04-10T18:02:41.064Z,14.73
2019-04-10T18:08:26.679Z,14.30
2019-04-10T18:11:14.266Z,14.10
2019-04-10T18:14:03.169Z,13.80
2019-04-10T18:16:52.062Z,15.07
2019-04-10T18:19:42.019Z,14.00
2019-04-10T18:22:30.908Z,15.03
2019-04-10T18:25:20.174Z,15.17
2019-04-10T18:28:09.494Z,13.93
2019-04-10T18:30:58.628Z,15.20
2019-04-10T18:33:47.528Z,12.93
2019-04-10T18:36:36.371Z,13.30
2019-04-10T18:39:24.578Z,13.60
2019-04-10T18:42:14.902Z,13.23
2019-04-10T18:45:03.722Z,14.60
2019-04-10T18:47:52.373Z,15.73
2019-04-10T18:50:40.902Z,15.07
2019-04-10T18:56:25.055Z,13.20
2019-04-10T18:59:18.472Z,12.60
2019-04-10T19:02:37.435Z,13.53
2019-04-10T19:08:26.003Z,13.07
2019-04-10T19:11:29.676Z,12.27
2019-04-10T19:14:08.256Z,12.50
2019-04-10T19:16:56.751Z,13.67
2019-04-10T19:20:05.889Z,11.60
2019-04-10T19:22:56.811Z,10.87
2019-04-10T19:25:49.138Z,11.80
2019-04-10T19:28:43.440Z,12.40
2019-04-10T19:31:56.369Z,11.37
2019-04-10T19:34:54.849Z,10.90
2019-04-10T19:37:45.827Z,11.60
2019-04-10T19:40:38.340Z,10.77
2019-04-10T19:43:34.656Z,11.23
2019-04-10T19:46:23.814Z,9.93
2019-04-10T19:49:14.560Z,10.70
2019-04-10T19:52:04.483Z,11.20
2019-04-10T19:54:55.470Z,10.23
2019-04-10T19:57:45.656Z,10.67
2019-04-10T20:00:36.789Z,11.80
2019-04-10T20:03:27.889Z,10.97
2019-04-10T20:06:18.452Z,10.90
2019-04-10T20:09:20.027Z,9.53
2019-04-10T20:12:12.696Z,10.73
2019-04-10T20:15:02.467Z,10.53
2019-04-10T20:17:52.482Z,10.50
2019-04-10T20:20:42.075Z,9.30
2019-04-10T20:23:32.079Z,9.90
2019-04-10T20:26:21.627Z,10.70
2019-04-10T20:29:13.247Z,9.93
2019-04-10T20:32:02.278Z,10.10
2019-04-10T20:34:55.889Z,9.53
2019-04-10T20:37:49.123Z,9.90
2019-04-10T20:40:38.485Z,8.37
2019-04-10T20:43:33.768Z,10.30
2019-04-10T20:46:22.826Z,9.27
2019-04-10T20:49:12.118Z,9.40
2019-04-10T20:52:01.979Z,9.90
2019-04-10T20:54:51.122Z,9.53
2019-04-10T20:57:39.848Z,9.37
2019-04-10T21:00:32.658Z,9.17
2019-04-10T21:03:21.154Z,9.60
2019-04-10T21:06:09.075Z,10.10
2019-04-10T21:08:57.315Z,8.63
2019-04-10T21:11:58.805Z,9.67
2019-04-10T21:14:35.928Z,9.33
2019-04-10T21:17:24.849Z,9.50
2019-04-10T21:20:13.706Z,9.50
2019-04-10T21:23:01.955Z,10.60
2019-04-10T21:25:50.344Z,9.50
2019-04-10T21:28:39.267Z,9.00
2019-04-10T21:31:48.244Z,8.90
2019-04-10T21:34:47.202Z,8.47
2019-04-10T21:37:35.112Z,8.47
2019-04-10T21:40:22.919Z,9.37
2019-04-10T21:43:12.197Z,9.07
2019-04-10T21:46:00.565Z,9.00
2019-04-10T21:48:49.334Z,8.80
2019-04-10T21:51:37.459Z,8.83
2019-04-10T21:54:27.016Z,10.37
2019-04-10T21:57:16.080Z,8.60
2019-04-10T22:00:04.661Z,8.20
2019-04-10T22:02:52.498Z,8.30
2019-04-10T22:05:41.754Z,7.53
2019-04-10T22:08:35.768Z,8.73
2019-04-10T22:11:25.333Z,9.20
2019-04-10T22:14:14.968Z,8.73
2019-04-10T22:17:04.531Z,9.07
2019-04-10T22:19:52.902Z,8.40
2019-04-10T22:22:40.750Z,7.60
2019-04-10T22:25:29.734Z,8.23
2019-04-10T22:28:19.044Z,8.00
2019-04-10T22:31:07.418Z,8.10
2019-04-10T22:33:56.566Z,8.63
2019-04-10T22:36:45.217Z,9.00
2019-04-10T22:39:33.608Z,8.10
2019-04-10T22:42:34.795Z,7.83
2019-04-10T22:48:18.879Z,8.83
2019-04-10T22:51:08.459Z,7.60
2019-04-10T22:53:57.718Z,8.23
2019-04-10T22:56:46.307Z,8.10
2019-04-10T22:59:34.879Z,8.07
2019-04-10T23:02:23.528Z,8.57
2019-04-10T23:05:12.052Z,9.03
2019-04-10T23:07:59.709Z,7.80
2019-04-10T23:10:48.896Z,7.83
2019-04-10T23:13:38.289Z,8.70
2019-04-10T23:16:26.704Z,8.13
2019-04-10T23:19:14.395Z,7.87
2019-04-10T23:22:03.091Z,8.30
2019-04-10T23:24:51.906Z,8.40
2019-04-10T23:27:40.349Z,8.90
2019-04-10T23:30:29.030Z,8.03
2019-04-10T23:33:17.802Z,9.90
2019-04-10T23:36:05.922Z,8.90
2019-04-10T23:38:55.518Z,9.30
2019-04-10T23:41:43.827Z,8.17
2019-04-10T23:44:33.155Z,8.30
2019-04-10T23:47:22.877Z,7.90
2019-04-10T23:50:12.151Z,8.10
2019-04-10T23:53:00.582Z,8.80
2019-04-10T23:55:48.390Z,8.23
2019-04-10T23:58:36.046Z,8.87
